AUH weather

Abu Dhabi International Airport
Abu Dhabi, Abu Dhabi Emirate, United Arab Emirates

Public forecast

Using degrees Celsius for public forecast. Weather courtesy of forecast.io.

Current aviation weather report (METAR) for Abu Dhabi International Airport

Retrieved 2020/04/02 22:00 UTC (1 hour ago):

OMAA 022200Z 36003KT CAVOK 24/17 Q1010 NOSIG

Aviation forecast (TAF) for Abu Dhabi International Airport

Forecast is more than 6 hours old.

Retrieved 2020/04/02 12:00 UTC (11 hours ago):

TAF OMAA 021100Z 0212/0318 33010KT 8000 NSC BECMG 0216/0218 10006KT BECMG 0311/0313 34012KT BECMG 0316/0318 07008KT